Flight Track Log - Related Links

Times and Time Zones

All times are in EDT time to prevent confusion due to time zone crossing. See the N45DJ flight status page for this flight to view local times or setup timezone preferences in your user account.


Time Position Orientation Groundspeed Altitude Reporting Facility
EDT Latitude Longitude Course Direction KTS MPH feet Rate Location/Type
Thu 08:31:39 AM 34.1453 -85.2311 195° South 352 405 9,100  Level Atlanta Center
Thu 08:32:39 AM 34.0972 -85.2481 196° South 258 297 11,000 1,800 Climbing Atlanta Center
Thu 08:33:39 AM 34.0492 -85.2672 198° South 214 246 12,700 1,600 Climbing Atlanta Center
Thu 08:34:39 AM 33.9989 -85.2842 196° South 199 229 14,200 1,450 Climbing Atlanta Center
Thu 08:35:39 AM 33.9400 -85.3058 197° South 204 235 15,600 900 Climbing Atlanta Center
Thu 08:36:00 AM 33.9269 -85.2966 195° South  Level FlightAware Approximate
Thu 08:36:39 AM 33.8772 -85.3275 196° South 217 250 16,000  Level Atlanta Center
Thu 08:37:39 AM 33.8061 -85.3539 197° South 265 305 16,000 450 Level Atlanta Center
Thu 08:38:39 AM 33.7244 -85.3800 195° South 292 336 16,900 1,100 Climbing Atlanta Center
Thu 08:39:39 AM 33.6511 -85.4039 195° South 292 336 18,200 1,250 Climbing Atlanta Center
Thu 08:40:39 AM 33.5819 -85.4253 194° South 276 318 19,400 1,200 Climbing Atlanta Center
Thu 08:41:39 AM 33.5108 -85.4342 186° South 265 305 20,600 1,250 Climbing Atlanta Center
Thu 08:42:39 AM 33.4397 -85.4428 186° South 260 299 21,900 1,250 Climbing Atlanta Center
Thu 08:43:39 AM 33.3686 -85.4517 186° South 253 291 23,100 1,150 Climbing Atlanta Center
Thu 08:44:39 AM 33.2978 -85.4581 184° South 258 297 24,200 1,100 Climbing Atlanta Center
Thu 08:45:39 AM 33.2286 -85.4692 188° South 258 297 25,300 900 Climbing Atlanta Center
Thu 08:46:39 AM 33.1431 -85.4703 181° South 263 303 26,000 350 Climbing Atlanta Center
Thu 08:47:39 AM 33.0594 -85.4864 189° South 286 329 26,000  Level Atlanta Center
Thu 08:48:39 AM 32.9694 -85.4972 186° South 312 359 26,000  Level Atlanta Center
Thu 08:49:39 AM 32.8714 -85.5031 183° South 335 386 26,000  Level Atlanta Center
Thu 08:50:39 AM 32.7750 -85.5186 188° South 347 399 26,000  Level Atlanta Center
Thu 08:51:39 AM 32.6769 -85.5294 185° South 352 405 26,000  Level Atlanta Center
Thu 08:52:39 AM 32.5767 -85.5375 184° South 352 405 26,000  Level Atlanta Center
Thu 08:53:39 AM 32.4825 -85.5508 187° South 352 405 26,000 -50 Level Atlanta Center
Thu 08:54:39 AM 32.3842 -85.5614 185° South 352 405 25,900 -550 Descending Atlanta Center
Thu 08:55:39 AM 32.2797 -85.5742 186° South 358 412 24,900 -613 Descending Atlanta Center
Thu 08:57:45 AM 32.0686 -85.6017 186° South 385 443 24,000 -290 Descending Jacksonville Center
Thu 08:58:45 AM 31.9600 -85.6131 185° South 379 436 24,000  Level Jacksonville Center
Thu 08:59:45 AM 31.8614 -85.6247 186° South 367 422 24,000  Level Jacksonville Center
Thu 09:00:45 AM 31.7611 -85.6367 186° South 367 422 24,000 -100 Level Jacksonville Center
Thu 09:01:45 AM 31.6647 -85.6483 186° South 362 417 23,800 -400 Descending Jacksonville Center
Thu 09:02:45 AM 31.5664 -85.6625 187° South 362 417 23,200 -850 Descending Jacksonville Center
Thu 09:03:45 AM 31.4658 -85.6717 184° South 367 422 22,100 -1,050 Descending Jacksonville Center
Thu 09:04:45 AM 31.3592 -85.6856 186° South 373 429 21,100 -950 Descending Jacksonville Center
Thu 09:05:45 AM 31.2692 -85.6950 185° South 373 429 20,200 -963 Descending Jacksonville Center
Thu 09:06:06 AM 31.2189 -85.6983 183° South 368 423 19,800 -1,000 Descending Jacksonville Center
Thu 09:06:45 AM 31.1667 -85.7042 185° South 368 423 19,200 -909 Descending Jacksonville Center
Thu 09:07:45 AM 31.0661 -85.7156 186° South 368 423 18,300 -1,250 Descending Jacksonville Center
Thu 09:08:45 AM 30.9636 -85.7269 185° South 368 423 16,700 -1,800 Descending Jacksonville Center
Thu 09:09:45 AM 30.8633 -85.7361 184° South 368 423 14,700 -2,200 Descending Jacksonville Center
Thu 09:10:45 AM 30.7647 -85.7525 188° South 368 423 12,300 -2,400 Descending Jacksonville Center
Thu 09:11:45 AM 30.6728 -85.7594 184° South 357 411 9,900 -2,600 Descending Jacksonville Center
Thu 09:12:45 AM 30.5953 -85.7692 186° South 318 366 7,100 -2,950 Descending Jacksonville Center
Thu 09:13:45 AM 30.5219 -85.7814 188° South 286 329 4,000 -2,600 Descending Jacksonville Center
Thu 09:14:45 AM 30.4547 -85.7939 189° South 265 305 1,900 -1,550 Descending Jacksonville Center
Thu 09:15:45 AM 30.4042 -85.8164 201° Southwest 231 266 900 -850 Descending Jacksonville Center
Thu 09:16:45 AM 30.3606 -85.8078 170° South 163 188 200 5,050 Descending Jacksonville Center
Thu 09:17:45 AM 30.3144 -85.8114 184° South 163 188 11,000 10,800 Climbing Jacksonville Center

Login

Don't have an account? Register now (free) for customized features, flight alerts, and more!